Flight Number: EUR1377 Duration: 2:00
Departure: Vágar Airport (EKVG) at 21:15 Distance: 696 Nm
Arrival: Gatwick Airport (EGKK) at 23:15 Equipment: CRJ700

Weather Information
Soervaag / Vagar, Denmark (EKVG) 62-04N 007-17W 92M Aug 17, 2018 - 04:50 PM EDT / 2018.08.17 2050 UTC
Wind: from the S (180 degrees) at 16 MPH (14 KT) (direction variable):0
Sky conditions: overcast Weather: drizzle Temperature: 51 F (11 C) Dew Point: 51 F (11 C) Relative Humidity: 100% Pressure (altimeter): 29.26 in. Hg (0991 hPa)
ob: EKVG 172050Z AUTO 18014KT 150V220 5000NDV DZ OVC002/// 11/11 Q0991 cycle: 21
Sunrise: 04:45 Sunset: 20:20 (UTC)

London / Gatwick Airport, United Kingdom (EGKK) 51-09N 000-11W 0M Aug 17, 2018 - 04:50 PM EDT / 2018.08.17 2050 UTC
Wind: from the SW (230 degrees) at 7 MPH (6 KT):0
Visibility: greater than 7 mile(s):0
Sky conditions: mostly cloudy Temperature: 62 F (17 C) Dew Point: 57 F (14 C) Relative Humidity: 82% Pressure (altimeter): 30.15 in. Hg (1021 hPa)
ob: EGKK 172050Z 23006KT 9999 BKN039 17/14 Q1021 cycle: 21
Sunrise: 04:55 Sunset: 19:14 (UTC)

TAF:2018/08/17 18:20 TAF EGKK 171657Z 1718/1824 25008KT 9999 SCT040 PROB30 TEMPO 1800/1807 BKN014 PROB30 TEMPO 1822/1824 BKN007

This route has never been flown.

Route map